sensor_id;sensor_type;location;lat;lon;timestamp;P1;durP1;ratioP1;P2;durP2;ratioP2
42192;SDS011;52467;40.114;18.306;2022-09-09T00:01:59;10.40;;;2.70;;
42192;SDS011;52467;40.114;18.306;2022-09-09T00:04:32;8.32;;;2.60;;
42192;SDS011;52467;40.114;18.306;2022-09-09T00:09:49;6.25;;;2.42;;
42192;SDS011;52467;40.114;18.306;2022-09-09T00:12:54;7.80;;;2.85;;
42192;SDS011;52467;40.114;18.306;2022-09-09T00:15:30;8.73;;;2.90;;
42192;SDS011;52467;40.114;18.306;2022-09-09T00:18:25;6.05;;;2.40;;
42192;SDS011;52467;40.114;18.306;2022-09-09T00:21:06;5.60;;;2.53;;
42192;SDS011;52467;40.114;18.306;2022-09-09T00:23:44;6.97;;;2.70;;
42192;SDS011;52467;40.114;18.306;2022-09-09T00:31:50;6.15;;;2.60;;
42192;SDS011;52467;40.114;18.306;2022-09-09T00:34:22;9.47;;;2.40;;
42192;SDS011;52467;40.114;18.306;2022-09-09T00:36:50;6.20;;;2.25;;
42192;SDS011;52467;40.114;18.306;2022-09-09T00:48:06;5.63;;;2.20;;
42192;SDS011;52467;40.114;18.306;2022-09-09T00:56:14;8.07;;;2.42;;
42192;SDS011;52467;40.114;18.306;2022-09-09T00:58:55;5.13;;;2.83;;
42192;SDS011;52467;40.114;18.306;2022-09-09T01:01:26;3.80;;;2.40;;
42192;SDS011;52467;40.114;18.306;2022-09-09T01:03:54;5.57;;;2.03;;
42192;SDS011;52467;40.114;18.306;2022-09-09T01:06:30;8.75;;;3.25;;
42192;SDS011;52467;40.114;18.306;2022-09-09T01:09:21;9.00;;;2.35;;
42192;SDS011;52467;40.114;18.306;2022-09-09T01:14:47;6.38;;;2.22;;
42192;SDS011;52467;40.114;18.306;2022-09-09T01:26:01;9.25;;;3.00;;
42192;SDS011;52467;40.114;18.306;2022-09-09T01:28:50;8.77;;;2.88;;
42192;SDS011;52467;40.114;18.306;2022-09-09T01:31:35;9.70;;;2.80;;
42192;SDS011;52467;40.114;18.306;2022-09-09T01:34:12;7.85;;;2.58;;
42192;SDS011;52467;40.114;18.306;2022-09-09T01:39:11;8.15;;;2.42;;
42192;SDS011;52467;40.114;18.306;2022-09-09T01:41:40;7.07;;;2.40;;
42192;SDS011;52467;40.114;18.306;2022-09-09T01:44:10;6.40;;;2.57;;
42192;SDS011;52467;40.114;18.306;2022-09-09T01:46:41;8.55;;;2.72;;
42192;SDS011;52467;40.114;18.306;2022-09-09T01:49:14;8.93;;;2.92;;
42192;SDS011;52467;40.114;18.306;2022-09-09T01:51:43;4.40;;;2.20;;
42192;SDS011;52467;40.114;18.306;2022-09-09T01:54:13;5.85;;;2.70;;
42192;SDS011;52467;40.114;18.306;2022-09-09T01:57:03;5.53;;;2.70;;
42192;SDS011;52467;40.114;18.306;2022-09-09T01:59:53;6.40;;;3.00;;
42192;SDS011;52467;40.114;18.306;2022-09-09T02:02:32;7.03;;;2.45;;
42192;SDS011;52467;40.114;18.306;2022-09-09T02:08:03;6.88;;;2.97;;
42192;SDS011;52467;40.114;18.306;2022-09-09T02:10:50;9.38;;;2.80;;
42192;SDS011;52467;40.114;18.306;2022-09-09T02:13:34;5.50;;;2.47;;
42192;SDS011;52467;40.114;18.306;2022-09-09T02:16:07;10.90;;;3.40;;
42192;SDS011;52467;40.114;18.306;2022-09-09T02:18:51;7.83;;;2.47;;
42192;SDS011;52467;40.114;18.306;2022-09-09T02:21:28;7.45;;;2.17;;
42192;SDS011;52467;40.114;18.306;2022-09-09T02:23:56;7.97;;;2.83;;
42192;SDS011;52467;40.114;18.306;2022-09-09T02:26:28;11.52;;;2.53;;
42192;SDS011;52467;40.114;18.306;2022-09-09T02:29:02;7.72;;;2.25;;
42192;SDS011;52467;40.114;18.306;2022-09-09T02:31:33;5.10;;;2.43;;
42192;SDS011;52467;40.114;18.306;2022-09-09T02:34:06;5.25;;;2.47;;
42192;SDS011;52467;40.114;18.306;2022-09-09T02:36:38;8.10;;;2.90;;
42192;SDS011;52467;40.114;18.306;2022-09-09T02:39:07;5.68;;;2.35;;
42192;SDS011;52467;40.114;18.306;2022-09-09T02:41:37;4.63;;;2.23;;
42192;SDS011;52467;40.114;18.306;2022-09-09T02:44:13;7.13;;;2.67;;
42192;SDS011;52467;40.114;18.306;2022-09-09T02:49:50;6.80;;;2.75;;
42192;SDS011;52467;40.114;18.306;2022-09-09T02:52:33;7.38;;;2.47;;
42192;SDS011;52467;40.114;18.306;2022-09-09T02:55:07;8.97;;;2.43;;
42192;SDS011;52467;40.114;18.306;2022-09-09T02:57:52;5.50;;;2.45;;
42192;SDS011;52467;40.114;18.306;2022-09-09T03:00:23;7.68;;;2.40;;
42192;SDS011;52467;40.114;18.306;2022-09-09T03:02:59;10.10;;;2.20;;
42192;SDS011;52467;40.114;18.306;2022-09-09T03:05:27;7.50;;;2.58;;
42192;SDS011;52467;40.114;18.306;2022-09-09T03:07:55;8.25;;;2.92;;
42192;SDS011;52467;40.114;18.306;2022-09-09T03:10:22;6.63;;;2.70;;
42192;SDS011;52467;40.114;18.306;2022-09-09T03:12:49;6.80;;;2.37;;
42192;SDS011;52467;40.114;18.306;2022-09-09T03:15:18;11.23;;;2.83;;
42192;SDS011;52467;40.114;18.306;2022-09-09T03:17:46;6.15;;;2.67;;
42192;SDS011;52467;40.114;18.306;2022-09-09T03:20:14;5.75;;;2.45;;
42192;SDS011;52467;40.114;18.306;2022-09-09T03:22:41;6.40;;;2.38;;
42192;SDS011;52467;40.114;18.306;2022-09-09T03:25:10;7.15;;;3.20;;
42192;SDS011;52467;40.114;18.306;2022-09-09T03:27:38;4.60;;;2.40;;
42192;SDS011;52467;40.114;18.306;2022-09-09T03:30:06;5.13;;;2.30;;
42192;SDS011;52467;40.114;18.306;2022-09-09T03:32:34;5.55;;;2.40;;
42192;SDS011;52467;40.114;18.306;2022-09-09T03:35:01;4.80;;;2.90;;
42192;SDS011;52467;40.114;18.306;2022-09-09T03:37:29;8.75;;;2.47;;
42192;SDS011;52467;40.114;18.306;2022-09-09T03:39:58;5.03;;;1.88;;
42192;SDS011;52467;40.114;18.306;2022-09-09T03:42:27;5.13;;;2.20;;
42192;SDS011;52467;40.114;18.306;2022-09-09T03:44:56;5.68;;;2.88;;
42192;SDS011;52467;40.114;18.306;2022-09-09T03:47:25;9.55;;;2.40;;
42192;SDS011;52467;40.114;18.306;2022-09-09T03:49:58;8.68;;;2.78;;
42192;SDS011;52467;40.114;18.306;2022-09-09T03:52:26;4.07;;;2.42;;
42192;SDS011;52467;40.114;18.306;2022-09-09T03:54:54;4.63;;;2.20;;
42192;SDS011;52467;40.114;18.306;2022-09-09T03:57:23;5.28;;;2.00;;
42192;SDS011;52467;40.114;18.306;2022-09-09T03:59:50;10.10;;;2.25;;
42192;SDS011;52467;40.114;18.306;2022-09-09T04:02:18;7.70;;;2.80;;
42192;SDS011;52467;40.114;18.306;2022-09-09T04:04:45;5.37;;;2.10;;
42192;SDS011;52467;40.114;18.306;2022-09-09T04:07:13;7.47;;;2.30;;
42192;SDS011;52467;40.114;18.306;2022-09-09T04:09:41;4.23;;;2.30;;
42192;SDS011;52467;40.114;18.306;2022-09-09T04:12:09;6.60;;;3.03;;
42192;SDS011;52467;40.114;18.306;2022-09-09T04:14:40;5.50;;;2.45;;
42192;SDS011;52467;40.114;18.306;2022-09-09T04:17:08;7.75;;;2.35;;
42192;SDS011;52467;40.114;18.306;2022-09-09T04:19:36;6.90;;;2.10;;
42192;SDS011;52467;40.114;18.306;2022-09-09T04:22:05;6.32;;;2.22;;
42192;SDS011;52467;40.114;18.306;2022-09-09T04:24:32;8.30;;;2.00;;
42192;SDS011;52467;40.114;18.306;2022-09-09T04:27:00;7.70;;;2.03;;
42192;SDS011;52467;40.114;18.306;2022-09-09T04:29:28;6.47;;;2.28;;
42192;SDS011;52467;40.114;18.306;2022-09-09T04:31:55;4.18;;;2.17;;
42192;SDS011;52467;40.114;18.306;2022-09-09T04:34:22;7.32;;;2.53;;
42192;SDS011;52467;40.114;18.306;2022-09-09T04:36:52;11.07;;;2.33;;
42192;SDS011;52467;40.114;18.306;2022-09-09T04:39:20;7.88;;;2.25;;
42192;SDS011;52467;40.114;18.306;2022-09-09T04:41:47;6.75;;;2.20;;
42192;SDS011;52467;40.114;18.306;2022-09-09T04:44:16;4.77;;;2.00;;
42192;SDS011;52467;40.114;18.306;2022-09-09T04:46:44;6.07;;;2.97;;
42192;SDS011;52467;40.114;18.306;2022-09-09T04:49:12;7.13;;;2.50;;
42192;SDS011;52467;40.114;18.306;2022-09-09T04:51:41;9.73;;;3.30;;
42192;SDS011;52467;40.114;18.306;2022-09-09T04:54:10;7.30;;;3.25;;
42192;SDS011;52467;40.114;18.306;2022-09-09T04:56:41;7.03;;;2.75;;
42192;SDS011;52467;40.114;18.306;2022-09-09T04:59:10;4.23;;;2.67;;
42192;SDS011;52467;40.114;18.306;2022-09-09T05:01:43;7.13;;;2.70;;
42192;SDS011;52467;40.114;18.306;2022-09-09T05:04:11;6.97;;;3.30;;
42192;SDS011;52467;40.114;18.306;2022-09-09T05:06:38;5.47;;;2.10;;
42192;SDS011;52467;40.114;18.306;2022-09-09T05:09:06;11.02;;;3.33;;
42192;SDS011;52467;40.114;18.306;2022-09-09T05:11:34;3.97;;;2.17;;
42192;SDS011;52467;40.114;18.306;2022-09-09T05:14:10;10.93;;;2.90;;
42192;SDS011;52467;40.114;18.306;2022-09-09T05:16:39;8.38;;;2.13;;
42192;SDS011;52467;40.114;18.306;2022-09-09T05:19:07;5.87;;;2.30;;
42192;SDS011;52467;40.114;18.306;2022-09-09T05:21:44;7.57;;;2.33;;
42192;SDS011;52467;40.114;18.306;2022-09-09T05:24:14;8.07;;;2.50;;
42192;SDS011;52467;40.114;18.306;2022-09-09T05:26:43;5.85;;;2.72;;
42192;SDS011;52467;40.114;18.306;2022-09-09T05:29:10;6.40;;;2.70;;
42192;SDS011;52467;40.114;18.306;2022-09-09T05:31:38;5.13;;;2.72;;
42192;SDS011;52467;40.114;18.306;2022-09-09T05:34:11;6.22;;;2.42;;
42192;SDS011;52467;40.114;18.306;2022-09-09T05:36:39;8.95;;;2.38;;
42192;SDS011;52467;40.114;18.306;2022-09-09T05:39:06;5.30;;;2.28;;
42192;SDS011;52467;40.114;18.306;2022-09-09T05:41:34;4.95;;;2.50;;
42192;SDS011;52467;40.114;18.306;2022-09-09T05:44:03;7.50;;;2.15;;
42192;SDS011;52467;40.114;18.306;2022-09-09T05:46:34;6.78;;;2.28;;
42192;SDS011;52467;40.114;18.306;2022-09-09T05:49:02;5.22;;;2.20;;
42192;SDS011;52467;40.114;18.306;2022-09-09T05:51:31;8.13;;;2.00;;
42192;SDS011;52467;40.114;18.306;2022-09-09T05:54:07;11.07;;;2.90;;
42192;SDS011;52467;40.114;18.306;2022-09-09T05:56:39;5.18;;;1.73;;
42192;SDS011;52467;40.114;18.306;2022-09-09T05:59:07;4.18;;;1.95;;
42192;SDS011;52467;40.114;18.306;2022-09-09T06:01:36;7.77;;;2.30;;
42192;SDS011;52467;40.114;18.306;2022-09-09T06:04:09;5.78;;;2.15;;
42192;SDS011;52467;40.114;18.306;2022-09-09T06:06:38;5.07;;;2.22;;
42192;SDS011;52467;40.114;18.306;2022-09-09T06:09:12;6.57;;;2.40;;
42192;SDS011;52467;40.114;18.306;2022-09-09T06:11:42;7.40;;;2.42;;
42192;SDS011;52467;40.114;18.306;2022-09-09T06:14:11;3.30;;;1.88;;
42192;SDS011;52467;40.114;18.306;2022-09-09T06:16:39;3.92;;;2.03;;
42192;SDS011;52467;40.114;18.306;2022-09-09T06:19:20;5.45;;;2.53;;
42192;SDS011;52467;40.114;18.306;2022-09-09T06:21:48;13.60;;;2.63;;
42192;SDS011;52467;40.114;18.306;2022-09-09T06:24:17;6.63;;;2.60;;
42192;SDS011;52467;40.114;18.306;2022-09-09T06:26:46;5.45;;;2.45;;
42192;SDS011;52467;40.114;18.306;2022-09-09T06:29:20;6.67;;;2.50;;
42192;SDS011;52467;40.114;18.306;2022-09-09T06:31:49;7.65;;;2.80;;
42192;SDS011;52467;40.114;18.306;2022-09-09T06:34:22;6.85;;;2.17;;
42192;SDS011;52467;40.114;18.306;2022-09-09T06:36:53;6.68;;;2.05;;
42192;SDS011;52467;40.114;18.306;2022-09-09T06:39:26;5.47;;;2.30;;
42192;SDS011;52467;40.114;18.306;2022-09-09T06:41:54;5.37;;;2.60;;
42192;SDS011;52467;40.114;18.306;2022-09-09T06:44:40;6.30;;;2.25;;
42192;SDS011;52467;40.114;18.306;2022-09-09T06:47:12;12.57;;;2.65;;
42192;SDS011;52467;40.114;18.306;2022-09-09T06:49:41;5.63;;;2.17;;
42192;SDS011;52467;40.114;18.306;2022-09-09T06:52:13;9.93;;;2.47;;
42192;SDS011;52467;40.114;18.306;2022-09-09T06:54:42;9.00;;;2.40;;
42192;SDS011;52467;40.114;18.306;2022-09-09T06:57:12;5.32;;;2.00;;
42192;SDS011;52467;40.114;18.306;2022-09-09T06:59:52;5.13;;;2.50;;
42192;SDS011;52467;40.114;18.306;2022-09-09T07:02:20;5.30;;;2.20;;
42192;SDS011;52467;40.114;18.306;2022-09-09T07:04:48;5.47;;;2.22;;
42192;SDS011;52467;40.114;18.306;2022-09-09T07:07:17;7.35;;;2.60;;
42192;SDS011;52467;40.114;18.306;2022-09-09T07:09:45;6.00;;;2.47;;
42192;SDS011;52467;40.114;18.306;2022-09-09T07:12:14;6.53;;;2.47;;
42192;SDS011;52467;40.114;18.306;2022-09-09T07:14:48;9.38;;;2.22;;
42192;SDS011;52467;40.114;18.306;2022-09-09T07:17:16;4.28;;;2.03;;
42192;SDS011;52467;40.114;18.306;2022-09-09T07:19:43;5.00;;;2.30;;
42192;SDS011;52467;40.114;18.306;2022-09-09T07:22:10;3.83;;;2.42;;
42192;SDS011;52467;40.114;18.306;2022-09-09T07:24:38;4.57;;;1.92;;
42192;SDS011;52467;40.114;18.306;2022-09-09T07:27:06;6.88;;;2.70;;
42192;SDS011;52467;40.114;18.306;2022-09-09T07:29:35;7.32;;;2.03;;
42192;SDS011;52467;40.114;18.306;2022-09-09T07:32:02;5.22;;;2.20;;
42192;SDS011;52467;40.114;18.306;2022-09-09T07:34:34;8.57;;;3.13;;
42192;SDS011;52467;40.114;18.306;2022-09-09T07:37:02;4.82;;;2.72;;
42192;SDS011;52467;40.114;18.306;2022-09-09T07:39:31;7.38;;;2.33;;
42192;SDS011;52467;40.114;18.306;2022-09-09T07:41:58;5.68;;;2.72;;
42192;SDS011;52467;40.114;18.306;2022-09-09T07:44:27;5.55;;;2.40;;
42192;SDS011;52467;40.114;18.306;2022-09-09T07:47:02;8.48;;;2.72;;
42192;SDS011;52467;40.114;18.306;2022-09-09T07:49:37;8.60;;;2.40;;
42192;SDS011;52467;40.114;18.306;2022-09-09T07:52:07;10.65;;;2.72;;
42192;SDS011;52467;40.114;18.306;2022-09-09T07:54:38;9.38;;;3.30;;
42192;SDS011;52467;40.114;18.306;2022-09-09T07:57:06;10.38;;;3.17;;
42192;SDS011;52467;40.114;18.306;2022-09-09T07:59:36;8.30;;;3.53;;
42192;SDS011;52467;40.114;18.306;2022-09-09T08:02:04;6.88;;;3.58;;
42192;SDS011;52467;40.114;18.306;2022-09-09T08:04:33;8.07;;;3.08;;
42192;SDS011;52467;40.114;18.306;2022-09-09T08:07:02;11.68;;;2.75;;
42192;SDS011;52467;40.114;18.306;2022-09-09T08:09:36;7.53;;;2.30;;
42192;SDS011;52467;40.114;18.306;2022-09-09T08:12:09;6.25;;;2.15;;
42192;SDS011;52467;40.114;18.306;2022-09-09T08:14:37;9.32;;;2.33;;
42192;SDS011;52467;40.114;18.306;2022-09-09T08:17:05;5.88;;;2.58;;
42192;SDS011;52467;40.114;18.306;2022-09-09T08:19:33;4.88;;;2.40;;
42192;SDS011;52467;40.114;18.306;2022-09-09T08:22:06;7.10;;;2.92;;
42192;SDS011;52467;40.114;18.306;2022-09-09T08:24:40;10.13;;;2.92;;
42192;SDS011;52467;40.114;18.306;2022-09-09T08:27:11;10.20;;;3.60;;
42192;SDS011;52467;40.114;18.306;2022-09-09T08:29:39;7.40;;;2.72;;
42192;SDS011;52467;40.114;18.306;2022-09-09T08:32:08;8.52;;;2.47;;
42192;SDS011;52467;40.114;18.306;2022-09-09T08:34:37;8.55;;;3.05;;
42192;SDS011;52467;40.114;18.306;2022-09-09T08:37:09;6.40;;;2.50;;
42192;SDS011;52467;40.114;18.306;2022-09-09T08:39:39;12.40;;;3.08;;
42192;SDS011;52467;40.114;18.306;2022-09-09T08:42:17;7.50;;;2.75;;
42192;SDS011;52467;40.114;18.306;2022-09-09T08:50:42;7.68;;;2.75;;
42192;SDS011;52467;40.114;18.306;2022-09-09T08:55:48;13.43;;;3.17;;
42192;SDS011;52467;40.114;18.306;2022-09-09T08:58:21;7.32;;;2.60;;
42192;SDS011;52467;40.114;18.306;2022-09-09T09:11:58;11.23;;;3.57;;
42192;SDS011;52467;40.114;18.306;2022-09-09T09:14:35;8.55;;;3.13;;
42192;SDS011;52467;40.114;18.306;2022-09-09T09:17:18;7.47;;;2.70;;
42192;SDS011;52467;40.114;18.306;2022-09-09T09:19:47;10.68;;;3.15;;
42192;SDS011;52467;40.114;18.306;2022-09-09T09:22:50;6.88;;;3.13;;
42192;SDS011;52467;40.114;18.306;2022-09-09T09:27:56;9.03;;;3.20;;
42192;SDS011;52467;40.114;18.306;2022-09-09T09:30:42;12.60;;;3.03;;
42192;SDS011;52467;40.114;18.306;2022-09-09T09:33:21;10.07;;;3.20;;
42192;SDS011;52467;40.114;18.306;2022-09-09T09:35:50;9.87;;;3.70;;
42192;SDS011;52467;40.114;18.306;2022-09-09T09:38:20;10.02;;;2.83;;
42192;SDS011;52467;40.114;18.306;2022-09-09T09:41:10;6.15;;;3.03;;
42192;SDS011;52467;40.114;18.306;2022-09-09T09:43:39;11.05;;;3.00;;
42192;SDS011;52467;40.114;18.306;2022-09-09T09:46:21;6.28;;;2.88;;
42192;SDS011;52467;40.114;18.306;2022-09-09T09:51:32;7.85;;;3.05;;
42192;SDS011;52467;40.114;18.306;2022-09-09T09:54:09;9.90;;;3.07;;
42192;SDS011;52467;40.114;18.306;2022-09-09T09:56:44;10.88;;;2.85;;
42192;SDS011;52467;40.114;18.306;2022-09-09T09:59:22;10.82;;;3.50;;
42192;SDS011;52467;40.114;18.306;2022-09-09T10:02:21;9.67;;;3.50;;
42192;SDS011;52467;40.114;18.306;2022-09-09T10:05:15;11.17;;;2.97;;
42192;SDS011;52467;40.114;18.306;2022-09-09T10:08:33;10.93;;;3.25;;
42192;SDS011;52467;40.114;18.306;2022-09-09T10:13:39;9.20;;;3.13;;
42192;SDS011;52467;40.114;18.306;2022-09-09T10:19:04;9.90;;;3.20;;
42192;SDS011;52467;40.114;18.306;2022-09-09T10:32:30;9.43;;;3.28;;
42192;SDS011;52467;40.114;18.306;2022-09-09T10:52:01;11.75;;;2.58;;
42192;SDS011;52467;40.114;18.306;2022-09-09T10:57:41;8.98;;;3.10;;
42192;SDS011;52467;40.114;18.306;2022-09-09T11:03:03;11.07;;;3.25;;
42192;SDS011;52467;40.114;18.306;2022-09-09T11:05:43;14.00;;;3.83;;
42192;SDS011;52467;40.114;18.306;2022-09-09T11:08:25;10.30;;;3.85;;
42192;SDS011;52467;40.114;18.306;2022-09-09T11:16:05;11.27;;;3.20;;
42192;SDS011;52467;40.114;18.306;2022-09-09T11:18:55;10.37;;;3.07;;
42192;SDS011;52467;40.114;18.306;2022-09-09T11:21:46;9.77;;;3.30;;
42192;SDS011;52467;40.114;18.306;2022-09-09T11:24:33;10.98;;;2.83;;
42192;SDS011;52467;40.114;18.306;2022-09-09T11:27:06;9.33;;;2.60;;
42192;SDS011;52467;40.114;18.306;2022-09-09T11:42:23;13.55;;;2.78;;
42192;SDS011;52467;40.114;18.306;2022-09-09T11:44:51;10.88;;;2.95;;
42192;SDS011;52467;40.114;18.306;2022-09-09T11:47:27;7.57;;;2.65;;
42192;SDS011;52467;40.114;18.306;2022-09-09T11:52:43;7.35;;;2.35;;
42192;SDS011;52467;40.114;18.306;2022-09-09T11:55:30;8.93;;;2.57;;
42192;SDS011;52467;40.114;18.306;2022-09-09T11:58:04;9.02;;;2.95;;
42192;SDS011;52467;40.114;18.306;2022-09-09T12:00:36;9.48;;;2.45;;
42192;SDS011;52467;40.114;18.306;2022-09-09T12:03:50;11.75;;;2.88;;
42192;SDS011;52467;40.114;18.306;2022-09-09T12:06:09;13.23;;;2.88;;
42192;SDS011;52467;40.114;18.306;2022-09-09T12:08:45;9.90;;;2.72;;
42192;SDS011;52467;40.114;18.306;2022-09-09T12:11:27;5.57;;;2.85;;
42192;SDS011;52467;40.114;18.306;2022-09-09T12:13:57;9.17;;;2.70;;
42192;SDS011;52467;40.114;18.306;2022-09-09T12:16:31;9.60;;;2.67;;
42192;SDS011;52467;40.114;18.306;2022-09-09T12:24:07;10.18;;;3.20;;
42192;SDS011;52467;40.114;18.306;2022-09-09T12:26:52;8.52;;;2.78;;
42192;SDS011;52467;40.114;18.306;2022-09-09T12:32:17;11.38;;;3.17;;
42192;SDS011;52467;40.114;18.306;2022-09-09T12:34:58;13.25;;;2.70;;
42192;SDS011;52467;40.114;18.306;2022-09-09T12:40:22;10.23;;;3.25;;
42192;SDS011;52467;40.114;18.306;2022-09-09T12:42:51;9.25;;;2.75;;
42192;SDS011;52467;40.114;18.306;2022-09-09T12:45:19;8.97;;;2.80;;
42192;SDS011;52467;40.114;18.306;2022-09-09T12:47:52;10.15;;;2.92;;
42192;SDS011;52467;40.114;18.306;2022-09-09T12:50:28;7.17;;;2.60;;
42192;SDS011;52467;40.114;18.306;2022-09-09T12:53:00;12.63;;;2.53;;
42192;SDS011;52467;40.114;18.306;2022-09-09T12:55:32;6.68;;;2.67;;
42192;SDS011;52467;40.114;18.306;2022-09-09T12:58:02;6.45;;;2.60;;
42192;SDS011;52467;40.114;18.306;2022-09-09T13:00:32;5.65;;;2.20;;
42192;SDS011;52467;40.114;18.306;2022-09-09T13:03:01;12.05;;;3.40;;
42192;SDS011;52467;40.114;18.306;2022-09-09T13:05:40;10.13;;;2.60;;
42192;SDS011;52467;40.114;18.306;2022-09-09T13:08:09;7.88;;;2.40;;
42192;SDS011;52467;40.114;18.306;2022-09-09T13:10:47;6.93;;;2.00;;
42192;SDS011;52467;40.114;18.306;2022-09-09T13:13:28;12.80;;;2.67;;
42192;SDS011;52467;40.114;18.306;2022-09-09T13:16:00;10.68;;;2.58;;
42192;SDS011;52467;40.114;18.306;2022-09-09T13:18:30;6.88;;;2.40;;
42192;SDS011;52467;40.114;18.306;2022-09-09T13:21:00;9.55;;;2.58;;
42192;SDS011;52467;40.114;18.306;2022-09-09T13:23:31;10.25;;;1.90;;
42192;SDS011;52467;40.114;18.306;2022-09-09T13:26:02;9.17;;;2.60;;
42192;SDS011;52467;40.114;18.306;2022-09-09T13:28:34;8.00;;;2.30;;
42192;SDS011;52467;40.114;18.306;2022-09-09T13:31:02;13.52;;;2.58;;
42192;SDS011;52467;40.114;18.306;2022-09-09T13:33:35;10.02;;;2.47;;
42192;SDS011;52467;40.114;18.306;2022-09-09T13:36:07;11.73;;;2.67;;
42192;SDS011;52467;40.114;18.306;2022-09-09T13:41:25;7.45;;;2.42;;
42192;SDS011;52467;40.114;18.306;2022-09-09T13:43:57;9.50;;;2.80;;
42192;SDS011;52467;40.114;18.306;2022-09-09T13:46:32;9.47;;;2.30;;
42192;SDS011;52467;40.114;18.306;2022-09-09T13:54:16;8.48;;;2.47;;
42192;SDS011;52467;40.114;18.306;2022-09-09T13:56:44;5.13;;;2.03;;
42192;SDS011;52467;40.114;18.306;2022-09-09T13:59:17;5.90;;;2.60;;
42192;SDS011;52467;40.114;18.306;2022-09-09T14:01:48;9.20;;;2.70;;
42192;SDS011;52467;40.114;18.306;2022-09-09T14:04:19;9.35;;;3.10;;
42192;SDS011;52467;40.114;18.306;2022-09-09T14:06:49;9.57;;;2.90;;
42192;SDS011;52467;40.114;18.306;2022-09-09T14:09:18;10.05;;;2.70;;
42192;SDS011;52467;40.114;18.306;2022-09-09T14:11:46;11.38;;;2.50;;
42192;SDS011;52467;40.114;18.306;2022-09-09T14:14:13;8.43;;;2.47;;
42192;SDS011;52467;40.114;18.306;2022-09-09T14:16:40;8.80;;;2.73;;
42192;SDS011;52467;40.114;18.306;2022-09-09T14:19:08;9.25;;;3.33;;
42192;SDS011;52467;40.114;18.306;2022-09-09T14:21:36;10.35;;;3.08;;
42192;SDS011;52467;40.114;18.306;2022-09-09T14:24:03;8.93;;;2.88;;
42192;SDS011;52467;40.114;18.306;2022-09-09T14:26:31;10.88;;;3.30;;
42192;SDS011;52467;40.114;18.306;2022-09-09T14:28:59;9.05;;;2.50;;
42192;SDS011;52467;40.114;18.306;2022-09-09T14:31:27;8.93;;;2.70;;
42192;SDS011;52467;40.114;18.306;2022-09-09T14:33:55;6.75;;;2.72;;
42192;SDS011;52467;40.114;18.306;2022-09-09T14:36:22;10.00;;;2.90;;
42192;SDS011;52467;40.114;18.306;2022-09-09T14:38:51;7.70;;;2.95;;
42192;SDS011;52467;40.114;18.306;2022-09-09T14:41:19;10.95;;;3.03;;
42192;SDS011;52467;40.114;18.306;2022-09-09T14:43:47;11.95;;;3.08;;
42192;SDS011;52467;40.114;18.306;2022-09-09T14:46:15;12.48;;;2.55;;
42192;SDS011;52467;40.114;18.306;2022-09-09T14:48:43;8.93;;;2.80;;
42192;SDS011;52467;40.114;18.306;2022-09-09T14:51:15;10.00;;;2.58;;
42192;SDS011;52467;40.114;18.306;2022-09-09T14:53:43;6.90;;;2.30;;
42192;SDS011;52467;40.114;18.306;2022-09-09T14:56:12;6.95;;;2.40;;
42192;SDS011;52467;40.114;18.306;2022-09-09T14:58:43;12.35;;;2.10;;
42192;SDS011;52467;40.114;18.306;2022-09-09T15:01:13;9.00;;;2.38;;
42192;SDS011;52467;40.114;18.306;2022-09-09T15:03:42;9.35;;;2.53;;
42192;SDS011;52467;40.114;18.306;2022-09-09T15:06:13;9.07;;;3.05;;
42192;SDS011;52467;40.114;18.306;2022-09-09T15:08:41;5.85;;;1.90;;
42192;SDS011;52467;40.114;18.306;2022-09-09T15:11:11;6.43;;;2.65;;
42192;SDS011;52467;40.114;18.306;2022-09-09T15:13:40;7.43;;;2.70;;
42192;SDS011;52467;40.114;18.306;2022-09-09T15:16:10;10.45;;;2.55;;
42192;SDS011;52467;40.114;18.306;2022-09-09T15:18:39;8.95;;;2.50;;
42192;SDS011;52467;40.114;18.306;2022-09-09T15:21:13;8.02;;;2.58;;
42192;SDS011;52467;40.114;18.306;2022-09-09T15:23:42;8.88;;;3.13;;
42192;SDS011;52467;40.114;18.306;2022-09-09T15:26:09;12.73;;;2.90;;
42192;SDS011;52467;40.114;18.306;2022-09-09T15:28:37;10.32;;;2.88;;
42192;SDS011;52467;40.114;18.306;2022-09-09T15:31:12;6.32;;;2.40;;
42192;SDS011;52467;40.114;18.306;2022-09-09T15:33:41;11.52;;;2.80;;
42192;SDS011;52467;40.114;18.306;2022-09-09T15:36:21;11.00;;;3.22;;
42192;SDS011;52467;40.114;18.306;2022-09-09T15:38:53;8.10;;;3.33;;
42192;SDS011;52467;40.114;18.306;2022-09-09T15:41:21;8.27;;;2.30;;
42192;SDS011;52467;40.114;18.306;2022-09-09T15:43:50;8.40;;;2.33;;
42192;SDS011;52467;40.114;18.306;2022-09-09T15:48:55;10.90;;;2.78;;
42192;SDS011;52467;40.114;18.306;2022-09-09T15:51:24;16.08;;;3.30;;
42192;SDS011;52467;40.114;18.306;2022-09-09T15:54:13;9.40;;;2.90;;
42192;SDS011;52467;40.114;18.306;2022-09-09T15:56:44;9.63;;;2.65;;
42192;SDS011;52467;40.114;18.306;2022-09-09T15:59:13;10.93;;;3.20;;
42192;SDS011;52467;40.114;18.306;2022-09-09T16:01:41;10.40;;;3.08;;
42192;SDS011;52467;40.114;18.306;2022-09-09T16:04:09;11.82;;;3.47;;
42192;SDS011;52467;40.114;18.306;2022-09-09T16:06:37;10.02;;;3.22;;
42192;SDS011;52467;40.114;18.306;2022-09-09T16:09:05;8.60;;;3.58;;
42192;SDS011;52467;40.114;18.306;2022-09-09T16:11:35;13.10;;;3.17;;
42192;SDS011;52467;40.114;18.306;2022-09-09T16:14:04;8.63;;;2.93;;
42192;SDS011;52467;40.114;18.306;2022-09-09T16:16:33;14.00;;;3.50;;
42192;SDS011;52467;40.114;18.306;2022-09-09T16:19:08;16.83;;;3.80;;
42192;SDS011;52467;40.114;18.306;2022-09-09T16:21:37;10.05;;;3.97;;
42192;SDS011;52467;40.114;18.306;2022-09-09T16:24:07;14.48;;;4.70;;
42192;SDS011;52467;40.114;18.306;2022-09-09T16:26:36;11.00;;;4.00;;
42192;SDS011;52467;40.114;18.306;2022-09-09T16:29:05;12.13;;;3.90;;
42192;SDS011;52467;40.114;18.306;2022-09-09T16:31:33;12.83;;;4.00;;
42192;SDS011;52467;40.114;18.306;2022-09-09T16:34:00;9.88;;;4.03;;
42192;SDS011;52467;40.114;18.306;2022-09-09T16:36:30;11.27;;;4.00;;
42192;SDS011;52467;40.114;18.306;2022-09-09T16:39:04;13.85;;;4.13;;
42192;SDS011;52467;40.114;18.306;2022-09-09T16:41:33;12.07;;;3.78;;
42192;SDS011;52467;40.114;18.306;2022-09-09T16:44:02;10.85;;;3.80;;
42192;SDS011;52467;40.114;18.306;2022-09-09T16:46:31;19.67;;;4.28;;
42192;SDS011;52467;40.114;18.306;2022-09-09T16:49:01;11.75;;;4.43;;
42192;SDS011;52467;40.114;18.306;2022-09-09T16:51:31;13.68;;;4.68;;
42192;SDS011;52467;40.114;18.306;2022-09-09T16:54:03;15.18;;;4.53;;
42192;SDS011;52467;40.114;18.306;2022-09-09T16:56:34;10.50;;;3.75;;
42192;SDS011;52467;40.114;18.306;2022-09-09T16:59:09;15.00;;;4.47;;
42192;SDS011;52467;40.114;18.306;2022-09-09T17:01:38;13.90;;;4.93;;
42192;SDS011;52467;40.114;18.306;2022-09-09T17:04:10;11.38;;;4.05;;
42192;SDS011;52467;40.114;18.306;2022-09-09T17:06:40;15.63;;;4.90;;
42192;SDS011;52467;40.114;18.306;2022-09-09T17:09:08;13.90;;;4.63;;
42192;SDS011;52467;40.114;18.306;2022-09-09T17:11:37;11.95;;;4.22;;
42192;SDS011;52467;40.114;18.306;2022-09-09T17:14:05;12.67;;;4.40;;
42192;SDS011;52467;40.114;18.306;2022-09-09T17:16:34;26.45;;;5.40;;
42192;SDS011;52467;40.114;18.306;2022-09-09T17:19:02;11.55;;;4.50;;
42192;SDS011;52467;40.114;18.306;2022-09-09T17:21:31;26.38;;;5.65;;
42192;SDS011;52467;40.114;18.306;2022-09-09T17:23:59;18.55;;;4.72;;
42192;SDS011;52467;40.114;18.306;2022-09-09T17:26:27;14.50;;;4.22;;
42192;SDS011;52467;40.114;18.306;2022-09-09T17:28:56;15.32;;;4.18;;